Time;durP1;ratioP1;P1;durP2;ratioP2;P2;SDS_P1;SDS_P2;PMS_P1;PMS_P2;Temp;Humidity;BMP_temperature;BMP_pressure;BME280_temperature;BME280_humidity;BME280_pressure;Samples;Min_cycle;Max_cycle;Signal;HPM_P1;HPM_P2
2021/06/23 00:00:24;;;;;;;;;;;18.90;60.20;;;;;;1485699;40;19936;-65
2021/06/23 00:01:45;;;;;;;;;;;18.90;60.10;;;;;;1485248;40;20220;-65
2021/06/23 00:03:06;;;;;;;;;;;18.90;59.90;;;;;;1487797;40;20033;-65
2021/06/23 00:04:27;;;;;;;;;;;18.90;60.00;;;;;;1486147;40;19936;-65
2021/06/23 00:05:47;;;;;;;;;;;18.90;60.20;;;;;;1487394;40;20172;-65
2021/06/23 00:07:08;;;;;;;;;;;18.90;60.10;;;;;;1487020;40;19939;-65
2021/06/23 00:08:29;;;;;;;;;;;18.90;60.10;;;;;;1485736;40;19945;-65
2021/06/23 00:09:50;;;;;;;;;;;18.90;60.60;;;;;;1486119;40;19943;-65
2021/06/23 00:11:10;;;;;;;;;;;18.90;60.40;;;;;;1488367;40;19932;-64
2021/06/23 00:12:31;;;;;;;;;;;18.90;60.00;;;;;;1486878;40;20224;-65
2021/06/23 00:13:52;;;;;;;;;;;18.80;60.00;;;;;;1486736;40;20041;-64
2021/06/23 00:15:14;;;;;;;;;;;18.90;60.00;;;;;;1486889;40;19943;-64
2021/06/23 00:16:35;;;;;;;;;;;18.80;60.20;;;;;;1486325;40;19932;-66
2021/06/23 00:17:56;;;;;;;;;;;18.80;60.30;;;;;;1486021;39;20376;-66
2021/06/23 00:19:17;;;;;;;;;;;18.90;60.30;;;;;;1487938;39;19943;-66
2021/06/23 00:20:38;;;;;;;;;;;18.80;60.10;;;;;;1486375;40;19939;-66
2021/06/23 00:21:59;;;;;;;;;;;18.80;60.10;;;;;;1486374;40;19947;-66
2021/06/23 00:23:20;;;;;;;;;;;18.80;60.60;;;;;;1485937;40;20478;-65
2021/06/23 00:24:41;;;;;;;;;;;18.80;60.40;;;;;;1486477;40;20283;-67
2021/06/23 00:26:02;;;;;;;;;;;18.80;60.10;;;;;;1487181;40;19950;-66
2021/06/23 00:27:23;;;;;;;;;;;18.80;60.10;;;;;;1486452;40;19979;-65
2021/06/23 00:28:43;;;;;;;;;;;18.80;60.00;;;;;;1487281;40;19940;-65
2021/06/23 00:30:05;;;;;;;;;;;18.80;60.30;;;;;;1487055;40;19964;-65
2021/06/23 00:31:27;;;;;;;;;;;18.80;60.50;;;;;;1485684;40;19932;-65
2021/06/23 00:32:48;;;;;;;;;;;18.80;60.30;;;;;;1487013;40;19943;-65
2021/06/23 00:34:10;;;;;;;;;;;18.70;60.10;;;;;;1487008;40;19932;-65
2021/06/23 00:35:31;;;;;;;;;;;18.80;60.20;;;;;;1485561;40;19939;-65
2021/06/23 00:36:52;;;;;;;;;;;18.70;60.10;;;;;;1485324;40;20134;-66
2021/06/23 00:38:13;;;;;;;;;;;18.80;60.40;;;;;;1486344;40;20192;-65
2021/06/23 00:39:34;;;;;;;;;;;18.70;60.30;;;;;;1486712;39;19956;-66
2021/06/23 00:40:55;;;;;;;;;;;18.70;60.10;;;;;;1488013;39;19936;-65
2021/06/23 00:42:16;;;;;;;;;;;18.70;60.20;;;;;;1486024;40;20245;-65
2021/06/23 00:43:37;;;;;;;;;;;18.70;60.10;;;;;;1486161;40;19967;-65
2021/06/23 00:44:58;;;;;;;;;;;18.70;60.00;;;;;;1485986;40;20310;-65
2021/06/23 00:46:18;;;;;;;;;;;18.70;60.00;;;;;;1485792;40;19943;-65
2021/06/23 00:47:42;;;;;;;;;;;18.60;59.70;;;;;;1487248;40;19987;-65
2021/06/23 00:49:03;;;;;;;;;;;18.70;59.80;;;;;;1485955;40;19940;-65
2021/06/23 00:50:25;;;;;;;;;;;18.70;59.70;;;;;;1486357;40;19943;-65
2021/06/23 00:51:46;;;;;;;;;;;18.70;59.70;;;;;;1486492;40;19972;-65
2021/06/23 00:53:06;;;;;;;;;;;18.70;60.20;;;;;;1487410;40;20165;-65
2021/06/23 00:54:27;;;;;;;;;;;18.70;60.30;;;;;;1486654;40;20030;-65
2021/06/23 00:55:52;;;;;;;;;;;18.70;60.00;;;;;;1485943;40;19939;-65
2021/06/23 00:57:13;;;;;;;;;;;18.70;59.80;;;;;;1487259;40;19939;-65
2021/06/23 00:58:34;;;;;;;;;;;18.70;59.80;;;;;;1488215;39;20137;-65
2021/06/23 00:59:55;;;;;;;;;;;18.60;60.10;;;;;;1487592;39;19947;-65
2021/06/23 01:01:16;;;;;;;;;;;18.60;60.00;;;;;;1487563;40;20204;-65
2021/06/23 01:02:37;;;;;;;;;;;18.70;60.10;;;;;;1487120;40;19983;-65
2021/06/23 01:03:58;;;;;;;;;;;18.70;60.20;;;;;;1487302;39;20133;-65
2021/06/23 01:05:20;;;;;;;;;;;18.70;60.00;;;;;;1487453;39;19972;-65
2021/06/23 01:06:41;;;;;;;;;;;18.60;60.00;;;;;;1485888;40;19940;-65
2021/06/23 01:08:02;;;;;;;;;;;18.60;59.80;;;;;;1485800;40;20272;-65
2021/06/23 01:09:23;;;;;;;;;;;18.60;59.90;;;;;;1488170;40;19944;-65
2021/06/23 01:10:43;;;;;;;;;;;18.60;59.90;;;;;;1487578;40;20232;-66
2021/06/23 01:12:11;;;;;;;;;;;18.60;60.00;;;;;;1485916;40;20022;-65
2021/06/23 01:13:35;;;;;;;;;;;18.60;59.90;;;;;;1485735;40;19936;-65
2021/06/23 01:14:59;;;;;;;;;;;18.60;60.20;;;;;;1487825;40;20342;-65
2021/06/23 01:16:21;;;;;;;;;;;18.60;60.30;;;;;;1487170;40;19938;-65
2021/06/23 01:17:41;;;;;;;;;;;18.60;59.80;;;;;;1488584;39;20282;-65
2021/06/23 01:19:06;;;;;;;;;;;18.60;59.80;;;;;;1488128;39;19932;-65
2021/06/23 01:20:27;;;;;;;;;;;18.60;60.10;;;;;;1486076;40;19972;-65
2021/06/23 01:21:48;;;;;;;;;;;18.60;60.10;;;;;;1486384;40;19947;-65
2021/06/23 01:23:09;;;;;;;;;;;18.50;60.90;;;;;;1484946;40;19932;-65
2021/06/23 01:24:31;;;;;;;;;;;18.50;60.00;;;;;;1486331;40;20024;-65
2021/06/23 01:25:52;;;;;;;;;;;18.50;60.00;;;;;;1485787;40;19977;-65
2021/06/23 01:27:12;;;;;;;;;;;18.50;60.00;;;;;;1486801;40;20204;-65
2021/06/23 01:28:33;;;;;;;;;;;18.60;60.30;;;;;;1485773;40;19939;-65
2021/06/23 01:29:54;;;;;;;;;;;18.50;59.90;;;;;;1485253;40;20441;-65
2021/06/23 01:31:16;;;;;;;;;;;18.50;59.90;;;;;;1486342;40;20235;-65
2021/06/23 01:32:37;;;;;;;;;;;18.50;60.20;;;;;;1486669;40;19932;-66
2021/06/23 01:33:58;;;;;;;;;;;18.60;60.30;;;;;;1486025;40;19936;-65
2021/06/23 01:35:18;;;;;;;;;;;18.50;60.00;;;;;;1486006;40;19933;-65
2021/06/23 01:36:39;;;;;;;;;;;18.50;60.00;;;;;;1487696;39;19972;-65
2021/06/23 01:38:01;;;;;;;;;;;18.50;60.50;;;;;;1487520;40;19940;-65
2021/06/23 01:39:22;;;;;;;;;;;18.50;60.50;;;;;;1487049;40;19947;-65
2021/06/23 01:40:42;;;;;;;;;;;18.50;60.60;;;;;;1486796;40;19932;-65
2021/06/23 01:42:04;;;;;;;;;;;18.50;60.30;;;;;;1484840;40;19941;-66
2021/06/23 01:43:24;;;;;;;;;;;18.50;60.20;;;;;;1487505;39;19944;-65
2021/06/23 01:44:45;;;;;;;;;;;18.50;60.20;;;;;;1485717;40;19948;-65
2021/06/23 01:46:06;;;;;;;;;;;18.40;59.80;;;;;;1486349;40;19932;-65
2021/06/23 01:47:27;;;;;;;;;;;18.50;59.90;;;;;;1486334;40;19936;-65
2021/06/23 01:48:48;;;;;;;;;;;18.50;60.00;;;;;;1487491;40;19964;-64
2021/06/23 01:50:12;;;;;;;;;;;18.50;60.30;;;;;;1481783;40;19984;-64
2021/06/23 01:51:33;;;;;;;;;;;18.50;60.30;;;;;;1486533;40;19942;-64
2021/06/23 01:52:54;;;;;;;;;;;18.50;60.10;;;;;;1487164;40;19959;-64
2021/06/23 01:54:15;;;;;;;;;;;18.50;60.50;;;;;;1487214;40;19936;-64
2021/06/23 01:55:35;;;;;;;;;;;18.50;60.50;;;;;;1484590;40;20262;-64
2021/06/23 01:56:56;;;;;;;;;;;18.50;60.10;;;;;;1487591;39;20260;-64
2021/06/23 01:58:17;;;;;;;;;;;18.50;60.50;;;;;;1487039;39;19932;-64
2021/06/23 01:59:38;;;;;;;;;;;18.40;60.20;;;;;;1486631;40;19932;-64
2021/06/23 02:01:08;;;;;;;;;;;18.40;60.00;;;;;;1486121;40;19980;-64
2021/06/23 02:02:29;;;;;;;;;;;18.40;60.20;;;;;;1486381;40;19942;-64
2021/06/23 02:03:50;;;;;;;;;;;18.40;60.40;;;;;;1481881;40;19978;-64
2021/06/23 02:05:12;;;;;;;;;;;18.50;60.20;;;;;;1483140;40;20025;-64
2021/06/23 02:06:33;;;;;;;;;;;18.40;60.40;;;;;;1485968;40;20278;-64
2021/06/23 02:07:57;;;;;;;;;;;18.40;60.20;;;;;;1481405;40;19959;-64
2021/06/23 02:09:25;;;;;;;;;;;18.40;59.90;;;;;;1484752;40;19951;-64
2021/06/23 02:10:50;;;;;;;;;;;18.40;60.30;;;;;;1486649;40;19943;-64
2021/06/23 02:12:23;;;;;;;;;;;18.40;60.40;;;;;;1487869;40;20065;-64
2021/06/23 02:13:53;;;;;;;;;;;18.40;60.20;;;;;;1488253;40;19940;-64
2021/06/23 02:15:14;;;;;;;;;;;18.40;60.10;;;;;;1486929;39;19981;-64
2021/06/23 02:16:37;;;;;;;;;;;18.40;60.30;;;;;;1486431;40;20186;-64
2021/06/23 02:17:58;;;;;;;;;;;18.40;60.30;;;;;;1486315;40;19932;-64
2021/06/23 02:19:18;;;;;;;;;;;18.40;60.40;;;;;;1485756;40;19940;-64
2021/06/23 02:20:39;;;;;;;;;;;18.40;60.10;;;;;;1487947;40;20323;-64
2021/06/23 02:22:00;;;;;;;;;;;18.40;60.00;;;;;;1486649;40;19937;-64
2021/06/23 02:23:21;;;;;;;;;;;18.40;60.20;;;;;;1488042;40;19932;-64
2021/06/23 02:24:42;;;;;;;;;;;18.40;60.20;;;;;;1486996;40;19943;-64
2021/06/23 02:26:04;;;;;;;;;;;18.40;60.10;;;;;;1485140;40;20291;-64
2021/06/23 02:27:24;;;;;;;;;;;18.40;60.30;;;;;;1487148;40;19932;-64
2021/06/23 02:28:45;;;;;;;;;;;18.40;60.50;;;;;;1486099;40;19948;-64
2021/06/23 02:30:06;;;;;;;;;;;18.40;60.60;;;;;;1486416;40;20330;-64
2021/06/23 02:31:28;;;;;;;;;;;18.30;60.20;;;;;;1485694;40;20346;-64
2021/06/23 02:32:49;;;;;;;;;;;18.40;60.40;;;;;;1485947;40;19948;-64
2021/06/23 02:34:13;;;;;;;;;;;18.30;60.50;;;;;;1485826;40;19943;-64
2021/06/23 02:35:34;;;;;;;;;;;18.30;60.90;;;;;;1486715;39;19953;-64
2021/06/23 02:36:55;;;;;;;;;;;18.40;60.80;;;;;;1485818;39;20053;-64
2021/06/23 02:38:16;;;;;;;;;;;18.30;60.40;;;;;;1486129;40;19986;-64
2021/06/23 02:39:37;;;;;;;;;;;18.30;60.30;;;;;;1486772;40;19939;-64
2021/06/23 02:40:58;;;;;;;;;;;18.30;60.40;;;;;;1486551;40;19940;-64
2021/06/23 02:42:20;;;;;;;;;;;18.30;60.10;;;;;;1486556;40;19952;-64
2021/06/23 02:43:40;;;;;;;;;;;18.30;60.00;;;;;;1487004;39;19961;-64
2021/06/23 02:45:02;;;;;;;;;;;18.30;60.40;;;;;;1486674;40;19937;-64
2021/06/23 02:46:23;;;;;;;;;;;18.30;60.30;;;;;;1485658;40;19951;-64
2021/06/23 02:47:43;;;;;;;;;;;18.30;60.10;;;;;;1484199;40;19958;-64
2021/06/23 02:49:04;;;;;;;;;;;18.30;60.20;;;;;;1484731;40;20146;-64
2021/06/23 02:50:28;;;;;;;;;;;18.30;60.10;;;;;;1486515;40;19940;-64
2021/06/23 02:51:49;;;;;;;;;;;18.30;60.40;;;;;;1486387;40;20249;-64
2021/06/23 02:53:10;;;;;;;;;;;18.30;60.30;;;;;;1486701;40;19947;-64
2021/06/23 02:54:31;;;;;;;;;;;18.30;60.10;;;;;;1487473;39;19946;-64
2021/06/23 02:55:53;;;;;;;;;;;18.30;60.00;;;;;;1486530;40;19944;-64
2021/06/23 02:57:14;;;;;;;;;;;18.30;60.10;;;;;;1486154;40;19979;-64
2021/06/23 02:58:36;;;;;;;;;;;18.30;60.00;;;;;;1486299;40;19948;-64
2021/06/23 02:59:57;;;;;;;;;;;18.30;60.10;;;;;;1487263;40;19932;-64
2021/06/23 03:01:18;;;;;;;;;;;18.30;60.00;;;;;;1486835;40;19932;-64
2021/06/23 03:02:39;;;;;;;;;;;18.30;60.00;;;;;;1486515;40;19955;-64
2021/06/23 03:04:00;;;;;;;;;;;18.30;60.00;;;;;;1487352;40;19941;-64
2021/06/23 03:05:20;;;;;;;;;;;18.30;59.90;;;;;;1487524;40;19958;-65
2021/06/23 03:06:41;;;;;;;;;;;18.30;59.90;;;;;;1486709;40;19932;-64
2021/06/23 03:08:02;;;;;;;;;;;18.30;59.90;;;;;;1480900;40;19947;-64
2021/06/23 03:09:23;;;;;;;;;;;18.30;60.00;;;;;;1484362;40;19939;-64
2021/06/23 03:10:44;;;;;;;;;;;18.30;59.90;;;;;;1486657;40;19955;-64
2021/06/23 03:12:05;;;;;;;;;;;18.30;59.90;;;;;;1486642;40;19964;-64
2021/06/23 03:13:26;;;;;;;;;;;18.30;60.20;;;;;;1487269;40;20022;-64
2021/06/23 03:14:47;;;;;;;;;;;18.30;60.30;;;;;;1487125;40;19936;-64
2021/06/23 03:16:08;;;;;;;;;;;18.30;60.10;;;;;;1485549;40;19942;-64
2021/06/23 03:17:29;;;;;;;;;;;18.30;60.30;;;;;;1486680;39;20997;-64
2021/06/23 03:18:50;;;;;;;;;;;18.30;60.00;;;;;;1486005;39;19932;-64
2021/06/23 03:20:11;;;;;;;;;;;18.30;60.00;;;;;;1484822;40;20028;-64
2021/06/23 03:21:32;;;;;;;;;;;18.30;60.10;;;;;;1485410;40;19940;-64
2021/06/23 03:22:52;;;;;;;;;;;18.30;60.20;;;;;;1486532;40;19979;-64
2021/06/23 03:24:13;;;;;;;;;;;18.30;60.30;;;;;;1484736;40;19933;-64
2021/06/23 03:25:34;;;;;;;;;;;18.30;60.30;;;;;;1486749;40;20033;-64
2021/06/23 03:26:55;;;;;;;;;;;18.30;60.40;;;;;;1485902;40;19936;-64
2021/06/23 03:28:16;;;;;;;;;;;18.30;60.40;;;;;;1485840;40;20017;-64
2021/06/23 03:29:37;;;;;;;;;;;18.30;60.10;;;;;;1485395;40;19946;-64
2021/06/23 03:30:58;;;;;;;;;;;18.30;60.10;;;;;;1486082;40;19936;-64
2021/06/23 03:32:19;;;;;;;;;;;18.30;60.30;;;;;;1485855;40;20252;-64
2021/06/23 03:33:40;;;;;;;;;;;18.30;60.30;;;;;;1486159;40;19940;-64
2021/06/23 03:35:01;;;;;;;;;;;18.30;60.10;;;;;;1486449;40;20266;-64
2021/06/23 03:36:22;;;;;;;;;;;18.30;60.10;;;;;;1484428;40;20158;-64
2021/06/23 03:37:43;;;;;;;;;;;18.30;60.10;;;;;;1486181;40;19932;-64
2021/06/23 03:39:03;;;;;;;;;;;18.30;60.10;;;;;;1481774;40;19972;-64
2021/06/23 03:40:24;;;;;;;;;;;18.20;60.30;;;;;;1486300;40;19943;-64
2021/06/23 03:41:45;;;;;;;;;;;18.20;60.20;;;;;;1481897;40;19937;-64
2021/06/23 03:43:06;;;;;;;;;;;18.20;60.20;;;;;;1482852;40;20262;-64
2021/06/23 03:44:27;;;;;;;;;;;18.20;60.30;;;;;;1485514;40;19943;-64
2021/06/23 03:45:48;;;;;;;;;;;18.20;60.10;;;;;;1485056;40;19933;-64
2021/06/23 03:47:09;;;;;;;;;;;18.20;60.20;;;;;;1485812;40;19936;-64
2021/06/23 03:48:31;;;;;;;;;;;18.20;60.30;;;;;;1483691;40;19944;-64
2021/06/23 03:49:52;;;;;;;;;;;18.20;60.30;;;;;;1484633;40;20064;-64
2021/06/23 03:51:13;;;;;;;;;;;18.20;60.10;;;;;;1486266;40;20295;-64
2021/06/23 03:52:34;;;;;;;;;;;18.20;60.30;;;;;;1486754;40;20268;-64
2021/06/23 03:53:55;;;;;;;;;;;18.20;60.40;;;;;;1487294;40;20305;-64
2021/06/23 03:55:19;;;;;;;;;;;18.20;60.30;;;;;;1482520;40;20265;-64
2021/06/23 03:56:40;;;;;;;;;;;18.20;60.50;;;;;;1485159;40;20183;-64
2021/06/23 03:58:01;;;;;;;;;;;18.20;60.40;;;;;;1487524;40;20227;-64
2021/06/23 03:59:21;;;;;;;;;;;18.20;60.40;;;;;;1487838;40;20290;-64
2021/06/23 04:00:42;;;;;;;;;;;18.20;60.40;;;;;;1488289;40;20005;-64
2021/06/23 04:02:03;;;;;;;;;;;18.20;60.40;;;;;;1486173;40;19948;-63
2021/06/23 04:03:24;;;;;;;;;;;18.20;60.80;;;;;;1487124;40;20447;-64
2021/06/23 04:04:45;;;;;;;;;;;18.20;60.70;;;;;;1481570;40;19943;-64
2021/06/23 04:06:07;;;;;;;;;;;18.20;60.90;;;;;;1485625;40;19933;-64
2021/06/23 04:07:27;;;;;;;;;;;18.20;60.70;;;;;;1487729;39;20692;-64
2021/06/23 04:08:48;;;;;;;;;;;18.20;60.90;;;;;;1487509;40;19936;-64
2021/06/23 04:10:09;;;;;;;;;;;18.20;60.80;;;;;;1488195;40;19940;-64
2021/06/23 04:11:31;;;;;;;;;;;18.20;60.60;;;;;;1485506;40;19950;-64
2021/06/23 04:12:52;;;;;;;;;;;18.10;60.60;;;;;;1486998;40;20018;-64
2021/06/23 04:14:12;;;;;;;;;;;18.20;60.80;;;;;;1488212;40;19964;-64
2021/06/23 04:15:33;;;;;;;;;;;18.20;60.80;;;;;;1486017;40;19943;-64
2021/06/23 04:16:55;;;;;;;;;;;18.20;60.60;;;;;;1485835;40;20176;-64
2021/06/23 04:18:15;;;;;;;;;;;18.10;60.70;;;;;;1486823;40;19945;-64
2021/06/23 04:19:36;;;;;;;;;;;18.10;60.50;;;;;;1488169;40;19943;-64
2021/06/23 04:20:57;;;;;;;;;;;18.20;60.60;;;;;;1486654;39;19932;-64
2021/06/23 04:22:18;;;;;;;;;;;18.20;60.60;;;;;;1486924;40;19940;-65
2021/06/23 04:23:39;;;;;;;;;;;18.10;60.50;;;;;;1488361;40;19983;-64
2021/06/23 04:24:59;;;;;;;;;;;18.10;60.60;;;;;;1487141;40;19966;-64
2021/06/23 04:26:20;;;;;;;;;;;18.10;60.40;;;;;;1487189;40;20399;-64
2021/06/23 04:27:41;;;;;;;;;;;18.20;60.80;;;;;;1487858;40;19936;-65
2021/06/23 04:29:02;;;;;;;;;;;18.10;60.60;;;;;;1481956;40;19940;-64
2021/06/23 04:30:23;;;;;;;;;;;18.20;60.80;;;;;;1485333;40;19936;-64
2021/06/23 04:31:43;;;;;;;;;;;18.20;60.80;;;;;;1486160;40;19932;-64
2021/06/23 04:33:04;;;;;;;;;;;18.20;60.90;;;;;;1486451;40;19979;-64
2021/06/23 04:34:25;;;;;;;;;;;18.20;60.80;;;;;;1480721;40;20580;-64
2021/06/23 04:35:48;;;;;;;;;;;18.20;60.60;;;;;;1485190;40;20029;-64
2021/06/23 04:37:09;;;;;;;;;;;18.20;60.70;;;;;;1482298;40;19955;-64
2021/06/23 04:38:30;;;;;;;;;;;18.20;60.70;;;;;;1484534;40;19933;-64
2021/06/23 04:39:51;;;;;;;;;;;18.20;60.70;;;;;;1487765;39;19946;-64
2021/06/23 04:41:12;;;;;;;;;;;18.20;60.60;;;;;;1486254;39;19941;-64
2021/06/23 04:42:33;;;;;;;;;;;18.20;60.60;;;;;;1487168;39;19947;-64
2021/06/23 04:43:53;;;;;;;;;;;18.20;60.60;;;;;;1487109;40;20177;-64
2021/06/23 04:45:14;;;;;;;;;;;18.20;60.80;;;;;;1487095;40;19939;-64
2021/06/23 04:46:35;;;;;;;;;;;18.20;60.60;;;;;;1487756;40;20180;-64
2021/06/23 04:47:56;;;;;;;;;;;18.20;60.40;;;;;;1485776;40;19959;-64
2021/06/23 04:49:17;;;;;;;;;;;18.10;60.50;;;;;;1487802;40;19944;-64
2021/06/23 04:50:38;;;;;;;;;;;18.20;60.50;;;;;;1486694;40;20032;-64
2021/06/23 04:51:59;;;;;;;;;;;18.20;60.70;;;;;;1487945;39;20146;-64
2021/06/23 04:53:19;;;;;;;;;;;18.20;60.60;;;;;;1483720;40;19948;-64
2021/06/23 04:54:40;;;;;;;;;;;18.20;60.50;;;;;;1484644;40;20147;-64
2021/06/23 04:56:01;;;;;;;;;;;18.20;61.10;;;;;;1487792;40;19940;-64
2021/06/23 04:57:22;;;;;;;;;;;18.20;60.40;;;;;;1486983;40;20085;-64
2021/06/23 04:58:43;;;;;;;;;;;18.20;60.50;;;;;;1485457;40;20327;-64
2021/06/23 05:00:04;;;;;;;;;;;18.20;61.50;;;;;;1487605;39;19958;-64
2021/06/23 05:01:25;;;;;;;;;;;18.20;60.60;;;;;;1487165;39;19947;-64
2021/06/23 05:02:46;;;;;;;;;;;18.20;60.50;;;;;;1485914;40;19943;-64
2021/06/23 05:04:06;;;;;;;;;;;18.20;60.50;;;;;;1487500;40;19939;-64
2021/06/23 05:05:27;;;;;;;;;;;18.20;60.60;;;;;;1486626;40;20189;-64
2021/06/23 05:06:48;;;;;;;;;;;18.20;60.70;;;;;;1486169;40;19943;-63
2021/06/23 05:08:09;;;;;;;;;;;18.20;60.60;;;;;;1485173;40;20265;-64
2021/06/23 05:09:30;;;;;;;;;;;18.20;60.40;;;;;;1486826;40;19932;-64
2021/06/23 05:10:51;;;;;;;;;;;18.20;60.40;;;;;;1487128;40;19977;-64
2021/06/23 05:12:12;;;;;;;;;;;18.20;61.10;;;;;;1486888;40;19956;-64
2021/06/23 05:13:32;;;;;;;;;;;18.20;60.30;;;;;;1485212;39;19947;-64
2021/06/23 05:14:53;;;;;;;;;;;18.20;60.40;;;;;;1486938;40;19936;-64
2021/06/23 05:16:15;;;;;;;;;;;18.20;60.60;;;;;;1487078;40;19980;-64
2021/06/23 05:17:36;;;;;;;;;;;18.20;60.50;;;;;;1487557;40;19936;-64
2021/06/23 05:18:58;;;;;;;;;;;18.20;60.60;;;;;;1486138;40;19946;-64
2021/06/23 05:20:19;;;;;;;;;;;18.20;60.60;;;;;;1484921;40;19932;-64
2021/06/23 05:21:39;;;;;;;;;;;18.20;60.60;;;;;;1486017;40;19941;-64
2021/06/23 05:23:01;;;;;;;;;;;18.20;60.80;;;;;;1486532;39;20051;-64
2021/06/23 05:24:22;;;;;;;;;;;18.20;60.60;;;;;;1486659;40;19980;-64
2021/06/23 05:25:43;;;;;;;;;;;18.20;60.90;;;;;;1485204;40;19940;-64
2021/06/23 05:27:04;;;;;;;;;;;18.20;60.70;;;;;;1485860;40;19936;-64
2021/06/23 05:28:24;;;;;;;;;;;18.30;60.70;;;;;;1485846;40;19939;-64
2021/06/23 05:29:45;;;;;;;;;;;18.20;60.60;;;;;;1487586;40;19975;-63
2021/06/23 05:31:06;;;;;;;;;;;18.30;60.70;;;;;;1485442;40;19936;-64
2021/06/23 05:32:27;;;;;;;;;;;18.20;60.60;;;;;;1485902;40;19943;-64
2021/06/23 05:33:48;;;;;;;;;;;18.30;60.80;;;;;;1486498;39;19939;-64
2021/06/23 05:35:09;;;;;;;;;;;18.30;60.80;;;;;;1487482;40;20048;-64
2021/06/23 05:36:29;;;;;;;;;;;18.30;61.10;;;;;;1485835;40;20193;-64
2021/06/23 05:37:50;;;;;;;;;;;18.30;60.80;;;;;;1485645;39;19948;-64
2021/06/23 05:39:11;;;;;;;;;;;18.30;60.70;;;;;;1486376;39;20471;-64
2021/06/23 05:40:32;;;;;;;;;;;18.30;60.90;;;;;;1486987;39;19972;-64
2021/06/23 05:41:53;;;;;;;;;;;18.30;60.90;;;;;;1485875;40;20037;-64
2021/06/23 05:43:14;;;;;;;;;;;18.30;60.80;;;;;;1487815;40;20198;-64
2021/06/23 05:44:35;;;;;;;;;;;18.30;60.70;;;;;;1486380;40;19939;-64
2021/06/23 05:45:56;;;;;;;;;;;18.20;60.60;;;;;;1487093;40;19932;-64
2021/06/23 05:47:17;;;;;;;;;;;18.30;60.60;;;;;;1485837;40;19944;-64
2021/06/23 05:48:38;;;;;;;;;;;18.30;60.70;;;;;;1486372;40;20175;-64
2021/06/23 05:49:59;;;;;;;;;;;18.30;60.60;;;;;;1485321;40;19968;-64
2021/06/23 05:51:19;;;;;;;;;;;18.30;60.60;;;;;;1486179;40;19948;-64
2021/06/23 05:52:40;;;;;;;;;;;18.20;60.80;;;;;;1487204;40;19946;-64
2021/06/23 05:54:02;;;;;;;;;;;18.20;60.70;;;;;;1486850;40;20229;-64
2021/06/23 05:55:23;;;;;;;;;;;18.20;60.60;;;;;;1487135;40;20153;-64
2021/06/23 05:56:43;;;;;;;;;;;18.20;61.30;;;;;;1485601;40;19948;-64
2021/06/23 05:58:04;;;;;;;;;;;18.20;60.70;;;;;;1484112;40;20260;-64
2021/06/23 05:59:25;;;;;;;;;;;18.30;60.70;;;;;;1487400;40;19936;-64
2021/06/23 06:00:46;;;;;;;;;;;18.30;60.70;;;;;;1486584;40;19936;-64
2021/06/23 06:02:07;;;;;;;;;;;18.20;60.70;;;;;;1486238;39;20032;-64
2021/06/23 06:03:28;;;;;;;;;;;18.30;60.70;;;;;;1487422;39;19965;-64
2021/06/23 06:04:48;;;;;;;;;;;18.30;60.80;;;;;;1486488;40;19947;-64
2021/06/23 06:06:09;;;;;;;;;;;18.30;60.90;;;;;;1486369;40;19948;-64
2021/06/23 06:07:30;;;;;;;;;;;18.30;60.80;;;;;;1487097;40;19940;-64
2021/06/23 06:08:51;;;;;;;;;;;18.30;60.70;;;;;;1487217;40;19943;-64
2021/06/23 06:10:12;;;;;;;;;;;18.30;60.90;;;;;;1487311;40;19946;-64
2021/06/23 06:11:33;;;;;;;;;;;18.30;60.80;;;;;;1487130;40;19940;-64
2021/06/23 06:12:53;;;;;;;;;;;18.30;60.90;;;;;;1487476;40;20146;-64
2021/06/23 06:14:14;;;;;;;;;;;18.30;60.90;;;;;;1486795;40;20057;-64
2021/06/23 06:15:35;;;;;;;;;;;18.30;61.00;;;;;;1486235;40;19933;-64
2021/06/23 06:16:56;;;;;;;;;;;18.30;60.90;;;;;;1486116;40;19955;-64
2021/06/23 06:18:17;;;;;;;;;;;18.30;61.00;;;;;;1486243;40;20008;-64
2021/06/23 06:19:37;;;;;;;;;;;18.30;61.10;;;;;;1486028;40;20160;-64
2021/06/23 06:20:58;;;;;;;;;;;18.30;61.10;;;;;;1487414;40;19982;-64
2021/06/23 06:22:19;;;;;;;;;;;18.30;61.70;;;;;;1487699;39;19960;-64
2021/06/23 06:23:40;;;;;;;;;;;18.30;61.80;;;;;;1485018;39;19947;-64
2021/06/23 06:25:02;;;;;;;;;;;18.30;61.00;;;;;;1485440;39;19941;-64
2021/06/23 06:26:23;;;;;;;;;;;18.30;60.90;;;;;;1485909;39;19960;-64
2021/06/23 06:27:43;;;;;;;;;;;18.30;61.10;;;;;;1487589;40;19940;-64
2021/06/23 06:29:04;;;;;;;;;;;18.30;61.10;;;;;;1487170;40;20236;-64
2021/06/23 06:30:26;;;;;;;;;;;18.30;60.90;;;;;;1485920;40;19954;-64
2021/06/23 06:31:47;;;;;;;;;;;18.30;60.90;;;;;;1486806;40;20181;-64
2021/06/23 06:33:08;;;;;;;;;;;18.30;60.90;;;;;;1486143;40;19935;-65
2021/06/23 06:34:29;;;;;;;;;;;18.30;61.10;;;;;;1486505;40;19946;-64
2021/06/23 06:35:50;;;;;;;;;;;18.30;60.90;;;;;;1485186;40;19942;-64
2021/06/23 06:37:10;;;;;;;;;;;18.40;60.90;;;;;;1486601;40;20045;-64
2021/06/23 06:38:31;;;;;;;;;;;18.30;61.00;;;;;;1486180;40;19951;-64
2021/06/23 06:39:52;;;;;;;;;;;18.40;61.00;;;;;;1486002;40;19980;-64
2021/06/23 06:41:13;;;;;;;;;;;18.30;60.90;;;;;;1487750;40;19939;-64
2021/06/23 06:42:34;;;;;;;;;;;18.40;61.10;;;;;;1486003;40;19943;-64
2021/06/23 06:43:55;;;;;;;;;;;18.40;61.10;;;;;;1483613;40;20251;-64
2021/06/23 06:45:15;;;;;;;;;;;18.40;61.10;;;;;;1485990;39;20281;-64
2021/06/23 06:46:37;;;;;;;;;;;18.40;61.10;;;;;;1486295;40;19936;-64
2021/06/23 06:47:58;;;;;;;;;;;18.40;61.10;;;;;;1486755;39;19939;-64
2021/06/23 06:49:19;;;;;;;;;;;18.40;61.30;;;;;;1487075;39;19932;-64
2021/06/23 06:50:39;;;;;;;;;;;18.40;61.20;;;;;;1487447;40;20269;-64
2021/06/23 06:52:01;;;;;;;;;;;18.40;61.10;;;;;;1486422;39;19939;-64
2021/06/23 06:53:21;;;;;;;;;;;18.40;61.10;;;;;;1486226;39;20184;-65
2021/06/23 06:54:42;;;;;;;;;;;18.40;61.00;;;;;;1486110;40;19988;-64
2021/06/23 06:56:03;;;;;;;;;;;18.40;60.90;;;;;;1486599;40;19932;-64
2021/06/23 06:57:24;;;;;;;;;;;18.40;61.20;;;;;;1485848;40;19940;-64
2021/06/23 06:58:45;;;;;;;;;;;18.40;61.30;;;;;;1487231;40;20284;-64
2021/06/23 07:00:06;;;;;;;;;;;18.40;61.20;;;;;;1486839;40;20064;-64
2021/06/23 07:01:27;;;;;;;;;;;18.40;61.00;;;;;;1485537;40;19932;-64
2021/06/23 07:02:47;;;;;;;;;;;18.50;61.10;;;;;;1486471;40;20040;-64
2021/06/23 07:04:08;;;;;;;;;;;18.40;61.30;;;;;;1486712;39;19936;-64
2021/06/23 07:05:29;;;;;;;;;;;18.40;61.10;;;;;;1486638;39;20264;-64
2021/06/23 07:06:50;;;;;;;;;;;18.40;61.10;;;;;;1485738;40;20451;-64
2021/06/23 07:08:11;;;;;;;;;;;18.50;61.40;;;;;;1484974;40;20046;-64
2021/06/23 07:09:32;;;;;;;;;;;18.50;61.50;;;;;;1485892;40;19943;-64
2021/06/23 07:10:52;;;;;;;;;;;18.40;61.30;;;;;;1482030;40;19948;-64
2021/06/23 07:12:14;;;;;;;;;;;18.40;61.20;;;;;;1484609;40;19931;-64
2021/06/23 07:13:35;;;;;;;;;;;18.40;61.10;;;;;;1486062;40;20172;-64
2021/06/23 07:14:55;;;;;;;;;;;18.50;61.10;;;;;;1485457;40;19932;-64
2021/06/23 07:16:17;;;;;;;;;;;18.50;61.60;;;;;;1485804;40;19947;-64
2021/06/23 07:17:37;;;;;;;;;;;18.50;61.60;;;;;;1484585;39;19962;-65
2021/06/23 07:18:58;;;;;;;;;;;18.50;61.60;;;;;;1485791;40;19936;-64
2021/06/23 07:20:19;;;;;;;;;;;18.50;61.50;;;;;;1487213;40;19987;-64
2021/06/23 07:21:41;;;;;;;;;;;18.50;61.30;;;;;;1487473;40;19932;-64
2021/06/23 07:23:01;;;;;;;;;;;18.50;61.30;;;;;;1487387;40;19948;-64
2021/06/23 07:24:22;;;;;;;;;;;18.50;61.20;;;;;;1488325;39;19936;-64
2021/06/23 07:25:43;;;;;;;;;;;18.50;61.20;;;;;;1488816;39;19943;-64
2021/06/23 07:27:04;;;;;;;;;;;18.50;61.40;;;;;;1488292;40;20269;-65
2021/06/23 07:30:06;;;;;;;;;;;18.50;61.50;;;;;;1487208;40;20280;-64
2021/06/23 07:31:40;;;;;;;;;;;18.50;61.60;;;;;;1486305;40;20421;-64
2021/06/23 07:33:05;;;;;;;;;;;18.50;61.50;;;;;;1487361;40;19936;-64
2021/06/23 07:37:29;;;;;;;;;;;18.50;61.70;;;;;;1481802;40;19945;-64
2021/06/23 07:38:50;;;;;;;;;;;18.50;61.50;;;;;;1485486;40;19939;-64
2021/06/23 07:40:12;;;;;;;;;;;18.50;61.30;;;;;;1480135;40;19952;-64
2021/06/23 07:41:33;;;;;;;;;;;18.60;61.40;;;;;;1484519;40;19935;-64
2021/06/23 07:42:54;;;;;;;;;;;18.50;61.40;;;;;;1487100;39;20272;-64
2021/06/23 07:44:19;;;;;;;;;;;18.60;61.50;;;;;;1487132;39;19943;-64
2021/06/23 07:45:45;;;;;;;;;;;18.60;61.40;;;;;;1486264;40;19968;-64
2021/06/23 07:47:08;;;;;;;;;;;18.60;61.40;;;;;;1482290;40;19992;-64
2021/06/23 07:48:31;;;;;;;;;;;18.60;61.50;;;;;;1485605;40;19939;-64
2021/06/23 07:49:52;;;;;;;;;;;18.60;61.50;;;;;;1486463;40;19948;-64
2021/06/23 07:51:18;;;;;;;;;;;18.60;61.40;;;;;;1486503;40;19943;-64
2021/06/23 07:52:47;;;;;;;;;;;18.60;61.40;;;;;;1487840;40;20236;-64
2021/06/23 08:08:32;;;;;;;;;;;18.70;61.70;;;;;;1485833;40;19936;-64
2021/06/23 08:10:02;;;;;;;;;;;18.70;61.60;;;;;;1487700;40;19939;-64
2021/06/23 08:11:29;;;;;;;;;;;18.60;61.30;;;;;;1485559;40;20360;-64